sensor_id;sensor_type;location;lat;lon;timestamp;P1;durP1;ratioP1;P2;durP2;ratioP2
3341;SDS011;1684;50.748;6.154;2023-12-29T00:02:23;9.17;;;2.40;;
3341;SDS011;1684;50.748;6.154;2023-12-29T00:04:53;6.13;;;2.30;;
3341;SDS011;1684;50.748;6.154;2023-12-29T00:07:21;3.70;;;1.97;;
3341;SDS011;1684;50.748;6.154;2023-12-29T00:09:49;6.47;;;2.50;;
3341;SDS011;1684;50.748;6.154;2023-12-29T00:12:17;7.13;;;2.20;;
3341;SDS011;1684;50.748;6.154;2023-12-29T00:14:46;9.03;;;2.80;;
3341;SDS011;1684;50.748;6.154;2023-12-29T00:17:15;9.53;;;2.70;;
3341;SDS011;1684;50.748;6.154;2023-12-29T00:19:43;10.57;;;4.00;;
3341;SDS011;1684;50.748;6.154;2023-12-29T00:22:13;10.57;;;2.70;;
3341;SDS011;1684;50.748;6.154;2023-12-29T00:24:41;11.77;;;2.30;;
3341;SDS011;1684;50.748;6.154;2023-12-29T00:27:09;7.13;;;2.57;;
3341;SDS011;1684;50.748;6.154;2023-12-29T00:29:38;7.63;;;2.67;;
3341;SDS011;1684;50.748;6.154;2023-12-29T00:32:06;7.20;;;2.97;;
3341;SDS011;1684;50.748;6.154;2023-12-29T00:34:34;8.47;;;3.10;;
3341;SDS011;1684;50.748;6.154;2023-12-29T00:37:03;9.30;;;2.57;;
3341;SDS011;1684;50.748;6.154;2023-12-29T00:39:33;5.80;;;2.23;;
3341;SDS011;1684;50.748;6.154;2023-12-29T00:42:05;8.20;;;2.60;;
3341;SDS011;1684;50.748;6.154;2023-12-29T00:44:33;5.50;;;2.47;;
3341;SDS011;1684;50.748;6.154;2023-12-29T00:47:02;11.90;;;2.30;;
3341;SDS011;1684;50.748;6.154;2023-12-29T00:49:30;8.73;;;2.20;;
3341;SDS011;1684;50.748;6.154;2023-12-29T00:51:59;12.00;;;3.03;;
3341;SDS011;1684;50.748;6.154;2023-12-29T00:54:29;8.10;;;2.13;;
3341;SDS011;1684;50.748;6.154;2023-12-29T00:56:58;13.87;;;3.17;;
3341;SDS011;1684;50.748;6.154;2023-12-29T00:59:27;10.83;;;2.30;;
3341;SDS011;1684;50.748;6.154;2023-12-29T01:01:55;11.73;;;3.27;;
3341;SDS011;1684;50.748;6.154;2023-12-29T01:04:23;11.60;;;3.30;;
3341;SDS011;1684;50.748;6.154;2023-12-29T01:06:51;6.60;;;2.77;;
3341;SDS011;1684;50.748;6.154;2023-12-29T01:09:20;10.40;;;4.23;;
3341;SDS011;1684;50.748;6.154;2023-12-29T01:11:49;9.10;;;2.80;;
3341;SDS011;1684;50.748;6.154;2023-12-29T01:14:18;8.83;;;4.10;;
3341;SDS011;1684;50.748;6.154;2023-12-29T01:16:46;9.53;;;2.90;;
3341;SDS011;1684;50.748;6.154;2023-12-29T01:19:15;10.23;;;2.60;;
3341;SDS011;1684;50.748;6.154;2023-12-29T01:21:43;7.30;;;2.80;;
3341;SDS011;1684;50.748;6.154;2023-12-29T01:24:11;5.50;;;2.13;;
3341;SDS011;1684;50.748;6.154;2023-12-29T01:26:42;19.27;;;4.27;;
3341;SDS011;1684;50.748;6.154;2023-12-29T01:29:10;9.93;;;3.23;;
3341;SDS011;1684;50.748;6.154;2023-12-29T01:31:40;11.37;;;2.60;;
3341;SDS011;1684;50.748;6.154;2023-12-29T01:34:08;4.30;;;2.27;;
3341;SDS011;1684;50.748;6.154;2023-12-29T01:36:37;9.20;;;3.13;;
3341;SDS011;1684;50.748;6.154;2023-12-29T01:39:05;7.57;;;2.30;;
3341;SDS011;1684;50.748;6.154;2023-12-29T01:41:33;6.40;;;2.10;;
3341;SDS011;1684;50.748;6.154;2023-12-29T01:44:16;14.90;;;3.37;;
3341;SDS011;1684;50.748;6.154;2023-12-29T01:46:47;9.23;;;2.70;;
3341;SDS011;1684;50.748;6.154;2023-12-29T01:49:16;6.90;;;2.10;;
3341;SDS011;1684;50.748;6.154;2023-12-29T01:51:44;7.17;;;3.10;;
3341;SDS011;1684;50.748;6.154;2023-12-29T01:54:15;8.13;;;2.90;;
3341;SDS011;1684;50.748;6.154;2023-12-29T01:56:44;13.27;;;2.97;;
3341;SDS011;1684;50.748;6.154;2023-12-29T01:59:12;8.50;;;2.47;;
3341;SDS011;1684;50.748;6.154;2023-12-29T02:01:53;8.40;;;2.73;;
3341;SDS011;1684;50.748;6.154;2023-12-29T02:04:23;7.50;;;2.73;;
3341;SDS011;1684;50.748;6.154;2023-12-29T02:06:52;11.73;;;3.07;;
3341;SDS011;1684;50.748;6.154;2023-12-29T02:09:20;6.10;;;2.70;;
3341;SDS011;1684;50.748;6.154;2023-12-29T02:11:49;7.43;;;2.43;;
3341;SDS011;1684;50.748;6.154;2023-12-29T02:14:17;13.13;;;2.60;;
3341;SDS011;1684;50.748;6.154;2023-12-29T02:16:47;8.70;;;2.83;;
3341;SDS011;1684;50.748;6.154;2023-12-29T02:19:24;8.07;;;2.67;;
3341;SDS011;1684;50.748;6.154;2023-12-29T02:21:53;8.60;;;2.80;;
3341;SDS011;1684;50.748;6.154;2023-12-29T02:24:21;10.73;;;2.37;;
3341;SDS011;1684;50.748;6.154;2023-12-29T02:26:54;8.43;;;2.50;;
3341;SDS011;1684;50.748;6.154;2023-12-29T02:29:25;11.53;;;2.90;;
3341;SDS011;1684;50.748;6.154;2023-12-29T02:31:54;9.73;;;3.20;;
3341;SDS011;1684;50.748;6.154;2023-12-29T02:34:25;8.67;;;2.70;;
3341;SDS011;1684;50.748;6.154;2023-12-29T02:36:54;7.07;;;2.80;;
3341;SDS011;1684;50.748;6.154;2023-12-29T02:39:22;9.83;;;2.53;;
3341;SDS011;1684;50.748;6.154;2023-12-29T02:41:52;6.77;;;2.40;;
3341;SDS011;1684;50.748;6.154;2023-12-29T02:44:20;8.00;;;2.57;;
3341;SDS011;1684;50.748;6.154;2023-12-29T02:46:48;5.90;;;2.07;;
3341;SDS011;1684;50.748;6.154;2023-12-29T02:49:17;9.20;;;3.77;;
3341;SDS011;1684;50.748;6.154;2023-12-29T02:51:46;12.20;;;3.13;;
3341;SDS011;1684;50.748;6.154;2023-12-29T02:54:16;9.00;;;3.30;;
3341;SDS011;1684;50.748;6.154;2023-12-29T02:56:44;6.30;;;2.40;;
3341;SDS011;1684;50.748;6.154;2023-12-29T02:59:13;17.53;;;3.67;;
3341;SDS011;1684;50.748;6.154;2023-12-29T03:01:42;8.17;;;2.60;;
3341;SDS011;1684;50.748;6.154;2023-12-29T03:04:10;10.10;;;3.40;;
3341;SDS011;1684;50.748;6.154;2023-12-29T03:06:39;7.73;;;1.80;;
3341;SDS011;1684;50.748;6.154;2023-12-29T03:09:08;7.80;;;2.63;;
3341;SDS011;1684;50.748;6.154;2023-12-29T03:11:36;8.00;;;3.00;;
3341;SDS011;1684;50.748;6.154;2023-12-29T03:14:04;15.83;;;2.93;;
3341;SDS011;1684;50.748;6.154;2023-12-29T03:16:34;9.17;;;2.80;;
3341;SDS011;1684;50.748;6.154;2023-12-29T03:19:02;6.23;;;2.10;;
3341;SDS011;1684;50.748;6.154;2023-12-29T03:21:31;8.90;;;3.13;;
3341;SDS011;1684;50.748;6.154;2023-12-29T03:23:59;8.10;;;3.07;;
3341;SDS011;1684;50.748;6.154;2023-12-29T03:26:27;14.30;;;2.50;;
3341;SDS011;1684;50.748;6.154;2023-12-29T03:28:55;6.90;;;2.50;;
3341;SDS011;1684;50.748;6.154;2023-12-29T03:31:23;7.73;;;2.00;;
3341;SDS011;1684;50.748;6.154;2023-12-29T03:33:53;10.73;;;2.20;;
3341;SDS011;1684;50.748;6.154;2023-12-29T03:36:21;9.60;;;2.77;;
3341;SDS011;1684;50.748;6.154;2023-12-29T03:38:50;8.30;;;2.23;;
3341;SDS011;1684;50.748;6.154;2023-12-29T03:41:18;9.77;;;2.53;;
3341;SDS011;1684;50.748;6.154;2023-12-29T03:43:46;11.33;;;2.20;;
3341;SDS011;1684;50.748;6.154;2023-12-29T03:46:15;5.60;;;2.40;;
3341;SDS011;1684;50.748;6.154;2023-12-29T03:48:44;10.03;;;2.67;;
3341;SDS011;1684;50.748;6.154;2023-12-29T03:51:14;6.30;;;2.00;;
3341;SDS011;1684;50.748;6.154;2023-12-29T03:53:43;8.60;;;3.60;;
3341;SDS011;1684;50.748;6.154;2023-12-29T03:56:13;7.30;;;2.23;;
3341;SDS011;1684;50.748;6.154;2023-12-29T03:58:41;6.13;;;2.33;;
3341;SDS011;1684;50.748;6.154;2023-12-29T04:01:10;12.43;;;2.17;;
3341;SDS011;1684;50.748;6.154;2023-12-29T04:03:38;7.20;;;1.90;;
3341;SDS011;1684;50.748;6.154;2023-12-29T04:06:07;9.67;;;2.40;;
3341;SDS011;1684;50.748;6.154;2023-12-29T04:08:37;8.53;;;2.30;;
3341;SDS011;1684;50.748;6.154;2023-12-29T04:11:05;8.07;;;2.40;;
3341;SDS011;1684;50.748;6.154;2023-12-29T04:13:34;9.30;;;2.23;;
3341;SDS011;1684;50.748;6.154;2023-12-29T04:16:02;9.70;;;2.10;;
3341;SDS011;1684;50.748;6.154;2023-12-29T04:18:30;9.00;;;2.67;;
3341;SDS011;1684;50.748;6.154;2023-12-29T04:20:59;6.23;;;2.23;;
3341;SDS011;1684;50.748;6.154;2023-12-29T04:23:27;6.53;;;2.10;;
3341;SDS011;1684;50.748;6.154;2023-12-29T04:25:57;10.73;;;2.53;;
3341;SDS011;1684;50.748;6.154;2023-12-29T04:28:25;5.43;;;2.40;;
3341;SDS011;1684;50.748;6.154;2023-12-29T04:30:53;7.80;;;2.00;;
3341;SDS011;1684;50.748;6.154;2023-12-29T04:33:22;12.03;;;2.03;;
3341;SDS011;1684;50.748;6.154;2023-12-29T04:35:50;13.43;;;2.50;;
3341;SDS011;1684;50.748;6.154;2023-12-29T04:38:19;7.63;;;2.30;;
3341;SDS011;1684;50.748;6.154;2023-12-29T04:40:47;16.73;;;2.40;;
3341;SDS011;1684;50.748;6.154;2023-12-29T04:43:16;7.23;;;1.63;;
3341;SDS011;1684;50.748;6.154;2023-12-29T04:45:44;8.17;;;2.70;;
3341;SDS011;1684;50.748;6.154;2023-12-29T04:48:13;6.37;;;2.20;;
3341;SDS011;1684;50.748;6.154;2023-12-29T04:50:41;8.63;;;2.03;;
3341;SDS011;1684;50.748;6.154;2023-12-29T04:53:10;10.87;;;3.00;;
3341;SDS011;1684;50.748;6.154;2023-12-29T04:55:38;9.87;;;2.33;;
3341;SDS011;1684;50.748;6.154;2023-12-29T04:58:06;5.33;;;1.90;;
3341;SDS011;1684;50.748;6.154;2023-12-29T05:00:36;12.90;;;1.90;;
3341;SDS011;1684;50.748;6.154;2023-12-29T05:03:04;5.93;;;2.20;;
3341;SDS011;1684;50.748;6.154;2023-12-29T05:05:33;9.90;;;2.77;;
3341;SDS011;1684;50.748;6.154;2023-12-29T05:08:02;7.53;;;2.20;;
3341;SDS011;1684;50.748;6.154;2023-12-29T05:10:30;6.63;;;1.73;;
3341;SDS011;1684;50.748;6.154;2023-12-29T05:13:01;6.40;;;2.10;;
3341;SDS011;1684;50.748;6.154;2023-12-29T05:15:29;8.80;;;2.63;;
3341;SDS011;1684;50.748;6.154;2023-12-29T05:17:58;12.80;;;2.60;;
3341;SDS011;1684;50.748;6.154;2023-12-29T05:20:27;5.30;;;1.60;;
3341;SDS011;1684;50.748;6.154;2023-12-29T05:22:56;11.20;;;2.17;;
3341;SDS011;1684;50.748;6.154;2023-12-29T05:25:24;10.63;;;2.10;;
3341;SDS011;1684;50.748;6.154;2023-12-29T05:27:52;6.93;;;2.73;;
3341;SDS011;1684;50.748;6.154;2023-12-29T05:30:20;6.83;;;2.40;;
3341;SDS011;1684;50.748;6.154;2023-12-29T05:32:48;7.13;;;1.87;;
3341;SDS011;1684;50.748;6.154;2023-12-29T05:35:19;9.20;;;2.40;;
3341;SDS011;1684;50.748;6.154;2023-12-29T05:37:47;8.80;;;2.30;;
3341;SDS011;1684;50.748;6.154;2023-12-29T05:40:16;8.60;;;2.20;;
3341;SDS011;1684;50.748;6.154;2023-12-29T05:42:44;6.40;;;2.00;;
3341;SDS011;1684;50.748;6.154;2023-12-29T05:45:14;11.70;;;2.40;;
3341;SDS011;1684;50.748;6.154;2023-12-29T05:47:43;5.33;;;2.63;;
3341;SDS011;1684;50.748;6.154;2023-12-29T05:50:12;6.83;;;2.63;;
3341;SDS011;1684;50.748;6.154;2023-12-29T05:52:41;5.37;;;2.10;;
3341;SDS011;1684;50.748;6.154;2023-12-29T05:55:09;5.97;;;2.67;;
3341;SDS011;1684;50.748;6.154;2023-12-29T05:57:38;5.87;;;1.77;;
3341;SDS011;1684;50.748;6.154;2023-12-29T06:00:07;4.77;;;1.90;;
3341;SDS011;1684;50.748;6.154;2023-12-29T06:02:40;10.03;;;2.30;;
3341;SDS011;1684;50.748;6.154;2023-12-29T06:05:10;9.40;;;2.47;;
3341;SDS011;1684;50.748;6.154;2023-12-29T06:07:38;6.23;;;1.90;;
3341;SDS011;1684;50.748;6.154;2023-12-29T06:10:08;17.53;;;2.00;;
3341;SDS011;1684;50.748;6.154;2023-12-29T06:12:37;11.67;;;3.27;;
3341;SDS011;1684;50.748;6.154;2023-12-29T06:15:06;7.40;;;1.80;;
3341;SDS011;1684;50.748;6.154;2023-12-29T06:17:34;9.57;;;2.67;;
3341;SDS011;1684;50.748;6.154;2023-12-29T06:20:03;8.43;;;2.10;;
3341;SDS011;1684;50.748;6.154;2023-12-29T06:22:32;6.70;;;2.17;;
3341;SDS011;1684;50.748;6.154;2023-12-29T06:25:00;7.10;;;2.00;;
3341;SDS011;1684;50.748;6.154;2023-12-29T06:27:30;7.40;;;1.73;;
3341;SDS011;1684;50.748;6.154;2023-12-29T06:30:04;6.43;;;2.10;;
3341;SDS011;1684;50.748;6.154;2023-12-29T06:32:32;9.33;;;1.73;;
3341;SDS011;1684;50.748;6.154;2023-12-29T06:35:01;4.70;;;2.17;;
3341;SDS011;1684;50.748;6.154;2023-12-29T06:37:29;7.83;;;1.70;;
3341;SDS011;1684;50.748;6.154;2023-12-29T06:39:57;9.53;;;2.70;;
3341;SDS011;1684;50.748;6.154;2023-12-29T06:42:26;5.83;;;1.63;;
3341;SDS011;1684;50.748;6.154;2023-12-29T06:44:55;5.37;;;1.57;;
3341;SDS011;1684;50.748;6.154;2023-12-29T06:47:24;4.80;;;1.63;;
3341;SDS011;1684;50.748;6.154;2023-12-29T06:49:52;6.17;;;1.93;;
3341;SDS011;1684;50.748;6.154;2023-12-29T06:52:20;12.77;;;2.43;;
3341;SDS011;1684;50.748;6.154;2023-12-29T06:54:49;5.97;;;1.77;;
3341;SDS011;1684;50.748;6.154;2023-12-29T06:57:17;6.43;;;1.90;;
3341;SDS011;1684;50.748;6.154;2023-12-29T06:59:45;6.10;;;1.73;;
3341;SDS011;1684;50.748;6.154;2023-12-29T07:02:15;7.80;;;2.20;;
3341;SDS011;1684;50.748;6.154;2023-12-29T07:04:43;7.13;;;1.73;;
3341;SDS011;1684;50.748;6.154;2023-12-29T07:07:12;8.83;;;2.97;;
3341;SDS011;1684;50.748;6.154;2023-12-29T07:09:40;9.73;;;1.93;;
3341;SDS011;1684;50.748;6.154;2023-12-29T07:12:09;6.47;;;2.13;;
3341;SDS011;1684;50.748;6.154;2023-12-29T07:14:37;8.30;;;2.20;;
3341;SDS011;1684;50.748;6.154;2023-12-29T07:17:05;7.00;;;1.80;;
3341;SDS011;1684;50.748;6.154;2023-12-29T07:19:35;9.90;;;2.40;;
3341;SDS011;1684;50.748;6.154;2023-12-29T07:22:04;9.10;;;2.50;;
3341;SDS011;1684;50.748;6.154;2023-12-29T07:24:34;6.87;;;2.27;;
3341;SDS011;1684;50.748;6.154;2023-12-29T07:27:03;9.30;;;2.60;;
3341;SDS011;1684;50.748;6.154;2023-12-29T07:29:31;5.80;;;1.90;;
3341;SDS011;1684;50.748;6.154;2023-12-29T07:32:00;6.40;;;2.30;;
3341;SDS011;1684;50.748;6.154;2023-12-29T07:34:28;6.20;;;2.00;;
3341;SDS011;1684;50.748;6.154;2023-12-29T07:36:59;5.33;;;1.67;;
3341;SDS011;1684;50.748;6.154;2023-12-29T07:39:27;6.80;;;2.20;;
3341;SDS011;1684;50.748;6.154;2023-12-29T07:41:55;9.67;;;2.30;;
3341;SDS011;1684;50.748;6.154;2023-12-29T07:44:24;6.27;;;2.43;;
3341;SDS011;1684;50.748;6.154;2023-12-29T07:46:52;8.23;;;2.07;;
3341;SDS011;1684;50.748;6.154;2023-12-29T07:49:21;8.53;;;3.10;;
3341;SDS011;1684;50.748;6.154;2023-12-29T07:51:49;4.47;;;1.97;;
3341;SDS011;1684;50.748;6.154;2023-12-29T07:54:19;13.60;;;2.67;;
3341;SDS011;1684;50.748;6.154;2023-12-29T07:56:48;6.07;;;1.90;;
3341;SDS011;1684;50.748;6.154;2023-12-29T07:59:17;6.90;;;1.93;;
3341;SDS011;1684;50.748;6.154;2023-12-29T08:01:49;9.03;;;2.40;;
3341;SDS011;1684;50.748;6.154;2023-12-29T08:04:18;13.10;;;2.63;;
3341;SDS011;1684;50.748;6.154;2023-12-29T08:06:46;6.03;;;2.17;;
3341;SDS011;1684;50.748;6.154;2023-12-29T08:09:15;12.43;;;2.90;;
3341;SDS011;1684;50.748;6.154;2023-12-29T08:11:46;7.73;;;2.10;;
3341;SDS011;1684;50.748;6.154;2023-12-29T08:14:15;6.77;;;2.03;;
3341;SDS011;1684;50.748;6.154;2023-12-29T08:16:45;7.57;;;1.80;;
3341;SDS011;1684;50.748;6.154;2023-12-29T08:19:14;7.90;;;2.30;;
3341;SDS011;1684;50.748;6.154;2023-12-29T08:21:42;7.93;;;1.80;;
3341;SDS011;1684;50.748;6.154;2023-12-29T08:24:11;8.77;;;2.20;;
3341;SDS011;1684;50.748;6.154;2023-12-29T08:26:45;8.33;;;2.70;;
3341;SDS011;1684;50.748;6.154;2023-12-29T08:29:15;6.47;;;1.83;;
3341;SDS011;1684;50.748;6.154;2023-12-29T08:31:46;7.37;;;2.57;;
3341;SDS011;1684;50.748;6.154;2023-12-29T08:34:16;5.53;;;1.90;;
3341;SDS011;1684;50.748;6.154;2023-12-29T08:36:46;10.10;;;2.50;;
3341;SDS011;1684;50.748;6.154;2023-12-29T08:39:16;6.77;;;3.70;;
3341;SDS011;1684;50.748;6.154;2023-12-29T08:41:47;7.33;;;1.93;;
3341;SDS011;1684;50.748;6.154;2023-12-29T08:44:17;9.63;;;1.87;;
3341;SDS011;1684;50.748;6.154;2023-12-29T08:46:48;6.40;;;2.23;;
3341;SDS011;1684;50.748;6.154;2023-12-29T08:49:16;7.67;;;1.67;;
3341;SDS011;1684;50.748;6.154;2023-12-29T08:51:46;6.40;;;2.13;;
3341;SDS011;1684;50.748;6.154;2023-12-29T08:54:15;8.57;;;1.97;;
3341;SDS011;1684;50.748;6.154;2023-12-29T08:56:45;6.47;;;2.17;;
3341;SDS011;1684;50.748;6.154;2023-12-29T08:59:16;9.13;;;2.30;;
3341;SDS011;1684;50.748;6.154;2023-12-29T09:01:45;7.80;;;2.30;;
3341;SDS011;1684;50.748;6.154;2023-12-29T09:04:14;6.17;;;1.60;;
3341;SDS011;1684;50.748;6.154;2023-12-29T09:06:43;6.63;;;2.23;;
3341;SDS011;1684;50.748;6.154;2023-12-29T09:09:12;7.10;;;2.20;;
3341;SDS011;1684;50.748;6.154;2023-12-29T09:11:41;8.77;;;2.43;;
3341;SDS011;1684;50.748;6.154;2023-12-29T09:14:10;6.07;;;1.70;;
3341;SDS011;1684;50.748;6.154;2023-12-29T09:16:49;7.03;;;2.13;;
3341;SDS011;1684;50.748;6.154;2023-12-29T09:19:20;6.50;;;1.63;;
3341;SDS011;1684;50.748;6.154;2023-12-29T09:22:04;6.00;;;2.17;;
3341;SDS011;1684;50.748;6.154;2023-12-29T09:24:33;7.53;;;1.70;;
3341;SDS011;1684;50.748;6.154;2023-12-29T09:27:02;7.13;;;1.90;;
3341;SDS011;1684;50.748;6.154;2023-12-29T09:29:30;9.70;;;2.17;;
3341;SDS011;1684;50.748;6.154;2023-12-29T09:32:00;4.97;;;1.50;;
3341;SDS011;1684;50.748;6.154;2023-12-29T09:34:28;5.17;;;1.50;;
3341;SDS011;1684;50.748;6.154;2023-12-29T09:36:57;5.00;;;1.80;;
3341;SDS011;1684;50.748;6.154;2023-12-29T09:39:25;5.33;;;2.40;;
3341;SDS011;1684;50.748;6.154;2023-12-29T09:41:54;6.77;;;2.10;;
3341;SDS011;1684;50.748;6.154;2023-12-29T09:44:27;4.70;;;1.50;;
3341;SDS011;1684;50.748;6.154;2023-12-29T09:46:55;6.43;;;1.63;;
3341;SDS011;1684;50.748;6.154;2023-12-29T09:49:26;5.20;;;1.80;;
3341;SDS011;1684;50.748;6.154;2023-12-29T09:51:56;3.80;;;1.60;;
3341;SDS011;1684;50.748;6.154;2023-12-29T09:54:25;5.83;;;1.87;;
3341;SDS011;1684;50.748;6.154;2023-12-29T09:56:53;6.90;;;1.63;;
3341;SDS011;1684;50.748;6.154;2023-12-29T09:59:22;4.67;;;1.40;;
3341;SDS011;1684;50.748;6.154;2023-12-29T10:01:52;7.07;;;1.90;;
3341;SDS011;1684;50.748;6.154;2023-12-29T10:04:23;3.90;;;1.30;;
3341;SDS011;1684;50.748;6.154;2023-12-29T10:06:56;7.07;;;2.43;;
3341;SDS011;1684;50.748;6.154;2023-12-29T10:09:26;5.67;;;1.47;;
3341;SDS011;1684;50.748;6.154;2023-12-29T10:11:59;4.53;;;1.67;;
3341;SDS011;1684;50.748;6.154;2023-12-29T10:14:33;10.13;;;1.97;;
3341;SDS011;1684;50.748;6.154;2023-12-29T10:17:13;5.03;;;1.90;;
3341;SDS011;1684;50.748;6.154;2023-12-29T10:19:49;5.40;;;1.80;;
3341;SDS011;1684;50.748;6.154;2023-12-29T10:22:34;6.40;;;1.60;;
3341;SDS011;1684;50.748;6.154;2023-12-29T10:25:10;4.30;;;1.47;;
3341;SDS011;1684;50.748;6.154;2023-12-29T10:27:38;7.40;;;1.80;;
3341;SDS011;1684;50.748;6.154;2023-12-29T10:30:09;10.20;;;2.10;;
3341;SDS011;1684;50.748;6.154;2023-12-29T10:32:54;4.63;;;1.67;;
3341;SDS011;1684;50.748;6.154;2023-12-29T10:35:31;4.90;;;1.50;;
3341;SDS011;1684;50.748;6.154;2023-12-29T10:38:13;4.57;;;1.90;;
3341;SDS011;1684;50.748;6.154;2023-12-29T10:40:51;9.50;;;2.13;;
3341;SDS011;1684;50.748;6.154;2023-12-29T10:43:23;3.67;;;1.20;;
3341;SDS011;1684;50.748;6.154;2023-12-29T10:45:59;5.20;;;1.67;;
3341;SDS011;1684;50.748;6.154;2023-12-29T10:48:37;5.33;;;1.57;;
3341;SDS011;1684;50.748;6.154;2023-12-29T10:51:09;4.80;;;2.47;;
3341;SDS011;1684;50.748;6.154;2023-12-29T10:53:42;5.10;;;1.73;;
3341;SDS011;1684;50.748;6.154;2023-12-29T10:56:24;2.70;;;1.17;;
3341;SDS011;1684;50.748;6.154;2023-12-29T10:58:59;7.13;;;1.67;;
3341;SDS011;1684;50.748;6.154;2023-12-29T11:01:32;4.87;;;1.97;;
3341;SDS011;1684;50.748;6.154;2023-12-29T11:04:03;7.10;;;2.00;;
3341;SDS011;1684;50.748;6.154;2023-12-29T11:06:39;4.97;;;1.63;;
3341;SDS011;1684;50.748;6.154;2023-12-29T11:09:15;10.00;;;2.07;;
3341;SDS011;1684;50.748;6.154;2023-12-29T11:11:59;6.57;;;1.77;;
3341;SDS011;1684;50.748;6.154;2023-12-29T11:14:28;6.50;;;1.80;;
3341;SDS011;1684;50.748;6.154;2023-12-29T11:16:56;5.00;;;1.40;;
3341;SDS011;1684;50.748;6.154;2023-12-29T11:19:26;4.17;;;1.77;;
3341;SDS011;1684;50.748;6.154;2023-12-29T11:21:55;4.83;;;1.37;;
3341;SDS011;1684;50.748;6.154;2023-12-29T11:24:26;3.37;;;1.20;;
3341;SDS011;1684;50.748;6.154;2023-12-29T11:27:04;5.93;;;1.83;;
3341;SDS011;1684;50.748;6.154;2023-12-29T11:29:33;4.77;;;1.80;;
3341;SDS011;1684;50.748;6.154;2023-12-29T11:32:01;4.30;;;1.30;;
3341;SDS011;1684;50.748;6.154;2023-12-29T11:34:33;4.50;;;1.40;;
3341;SDS011;1684;50.748;6.154;2023-12-29T11:37:07;3.33;;;1.00;;
3341;SDS011;1684;50.748;6.154;2023-12-29T11:39:43;3.97;;;0.90;;
3341;SDS011;1684;50.748;6.154;2023-12-29T11:42:17;3.50;;;1.00;;
3341;SDS011;1684;50.748;6.154;2023-12-29T11:44:47;4.10;;;1.27;;
3341;SDS011;1684;50.748;6.154;2023-12-29T11:47:34;3.10;;;1.40;;
3341;SDS011;1684;50.748;6.154;2023-12-29T11:50:03;4.63;;;1.30;;
3341;SDS011;1684;50.748;6.154;2023-12-29T11:52:34;3.50;;;1.30;;
3341;SDS011;1684;50.748;6.154;2023-12-29T11:55:11;5.90;;;1.93;;
3341;SDS011;1684;50.748;6.154;2023-12-29T11:57:41;3.07;;;1.43;;
3341;SDS011;1684;50.748;6.154;2023-12-29T12:00:11;5.30;;;1.30;;
3341;SDS011;1684;50.748;6.154;2023-12-29T12:02:43;3.63;;;1.13;;
3341;SDS011;1684;50.748;6.154;2023-12-29T12:05:12;3.07;;;1.10;;
3341;SDS011;1684;50.748;6.154;2023-12-29T12:08:11;3.97;;;1.30;;
3341;SDS011;1684;50.748;6.154;2023-12-29T12:13:47;3.40;;;1.03;;
3341;SDS011;1684;50.748;6.154;2023-12-29T12:19:05;3.50;;;1.10;;
3341;SDS011;1684;50.748;6.154;2023-12-29T12:21:36;4.50;;;1.40;;
3341;SDS011;1684;50.748;6.154;2023-12-29T12:24:10;6.13;;;1.67;;
3341;SDS011;1684;50.748;6.154;2023-12-29T12:26:40;5.03;;;1.23;;
3341;SDS011;1684;50.748;6.154;2023-12-29T12:29:09;3.77;;;1.77;;
3341;SDS011;1684;50.748;6.154;2023-12-29T12:34:23;3.07;;;1.20;;
3341;SDS011;1684;50.748;6.154;2023-12-29T12:36:53;4.87;;;1.23;;
3341;SDS011;1684;50.748;6.154;2023-12-29T12:39:23;3.00;;;1.27;;
3341;SDS011;1684;50.748;6.154;2023-12-29T12:42:06;3.80;;;1.57;;
3341;SDS011;1684;50.748;6.154;2023-12-29T12:44:47;3.50;;;1.53;;
3341;SDS011;1684;50.748;6.154;2023-12-29T12:47:19;8.03;;;1.60;;
3341;SDS011;1684;50.748;6.154;2023-12-29T12:49:55;4.43;;;1.17;;
3341;SDS011;1684;50.748;6.154;2023-12-29T12:52:24;3.20;;;1.10;;
3341;SDS011;1684;50.748;6.154;2023-12-29T12:54:53;4.37;;;1.60;;
3341;SDS011;1684;50.748;6.154;2023-12-29T12:57:26;3.73;;;1.07;;
3341;SDS011;1684;50.748;6.154;2023-12-29T12:59:55;5.50;;;1.27;;
3341;SDS011;1684;50.748;6.154;2023-12-29T13:02:24;4.47;;;1.57;;
3341;SDS011;1684;50.748;6.154;2023-12-29T13:04:52;3.83;;;1.20;;
3341;SDS011;1684;50.748;6.154;2023-12-29T13:07:20;6.27;;;1.50;;
3341;SDS011;1684;50.748;6.154;2023-12-29T13:09:49;6.93;;;1.30;;
3341;SDS011;1684;50.748;6.154;2023-12-29T13:12:18;3.20;;;1.63;;
3341;SDS011;1684;50.748;6.154;2023-12-29T13:14:48;4.10;;;1.47;;
3341;SDS011;1684;50.748;6.154;2023-12-29T13:17:18;3.80;;;1.57;;
3341;SDS011;1684;50.748;6.154;2023-12-29T13:19:55;4.10;;;1.30;;
3341;SDS011;1684;50.748;6.154;2023-12-29T13:22:26;4.90;;;1.30;;
3341;SDS011;1684;50.748;6.154;2023-12-29T13:24:58;3.90;;;1.13;;
3341;SDS011;1684;50.748;6.154;2023-12-29T13:27:27;3.87;;;1.00;;
3341;SDS011;1684;50.748;6.154;2023-12-29T13:29:56;4.90;;;1.20;;
3341;SDS011;1684;50.748;6.154;2023-12-29T13:32:25;4.93;;;1.40;;
3341;SDS011;1684;50.748;6.154;2023-12-29T13:34:56;4.90;;;1.53;;
3341;SDS011;1684;50.748;6.154;2023-12-29T13:37:30;5.70;;;1.00;;
3341;SDS011;1684;50.748;6.154;2023-12-29T13:40:00;4.00;;;1.30;;
3341;SDS011;1684;50.748;6.154;2023-12-29T13:42:31;5.43;;;1.97;;
3341;SDS011;1684;50.748;6.154;2023-12-29T13:45:03;4.10;;;1.40;;
3341;SDS011;1684;50.748;6.154;2023-12-29T13:47:32;4.73;;;1.30;;
3341;SDS011;1684;50.748;6.154;2023-12-29T13:50:02;4.00;;;1.30;;
3341;SDS011;1684;50.748;6.154;2023-12-29T13:52:30;6.00;;;1.00;;
3341;SDS011;1684;50.748;6.154;2023-12-29T13:54:59;4.07;;;1.03;;
3341;SDS011;1684;50.748;6.154;2023-12-29T13:57:30;3.73;;;1.20;;
3341;SDS011;1684;50.748;6.154;2023-12-29T14:02:45;3.07;;;1.07;;
3341;SDS011;1684;50.748;6.154;2023-12-29T14:05:18;4.13;;;1.73;;
3341;SDS011;1684;50.748;6.154;2023-12-29T14:07:47;5.23;;;1.10;;
3341;SDS011;1684;50.748;6.154;2023-12-29T14:10:20;5.43;;;1.63;;
3341;SDS011;1684;50.748;6.154;2023-12-29T14:12:50;5.47;;;1.30;;
3341;SDS011;1684;50.748;6.154;2023-12-29T14:15:20;5.90;;;1.70;;
3341;SDS011;1684;50.748;6.154;2023-12-29T14:17:50;6.77;;;1.87;;
3341;SDS011;1684;50.748;6.154;2023-12-29T14:20:32;2.87;;;1.20;;
3341;SDS011;1684;50.748;6.154;2023-12-29T14:23:01;5.77;;;1.60;;
3341;SDS011;1684;50.748;6.154;2023-12-29T14:25:30;4.30;;;1.27;;
3341;SDS011;1684;50.748;6.154;2023-12-29T14:28:01;2.70;;;1.00;;
3341;SDS011;1684;50.748;6.154;2023-12-29T14:30:30;3.57;;;1.30;;
3341;SDS011;1684;50.748;6.154;2023-12-29T14:33:01;5.50;;;1.10;;
3341;SDS011;1684;50.748;6.154;2023-12-29T14:35:30;6.27;;;1.50;;
3341;SDS011;1684;50.748;6.154;2023-12-29T14:37:58;3.23;;;1.30;;
3341;SDS011;1684;50.748;6.154;2023-12-29T14:40:27;3.87;;;1.40;;
3341;SDS011;1684;50.748;6.154;2023-12-29T14:42:57;3.40;;;1.10;;
3341;SDS011;1684;50.748;6.154;2023-12-29T14:45:26;4.10;;;1.23;;
3341;SDS011;1684;50.748;6.154;2023-12-29T14:47:56;3.47;;;1.30;;
3341;SDS011;1684;50.748;6.154;2023-12-29T14:50:28;3.40;;;1.10;;
3341;SDS011;1684;50.748;6.154;2023-12-29T14:52:57;4.43;;;1.50;;
3341;SDS011;1684;50.748;6.154;2023-12-29T14:55:26;5.23;;;1.50;;
3341;SDS011;1684;50.748;6.154;2023-12-29T14:57:54;3.93;;;1.00;;
3341;SDS011;1684;50.748;6.154;2023-12-29T15:00:24;2.63;;;0.90;;
3341;SDS011;1684;50.748;6.154;2023-12-29T15:02:53;2.73;;;0.90;;
3341;SDS011;1684;50.748;6.154;2023-12-29T15:05:21;6.87;;;1.20;;
3341;SDS011;1684;50.748;6.154;2023-12-29T15:07:53;6.00;;;1.70;;
3341;SDS011;1684;50.748;6.154;2023-12-29T15:10:22;3.70;;;0.97;;
3341;SDS011;1684;50.748;6.154;2023-12-29T15:12:51;3.90;;;1.40;;
3341;SDS011;1684;50.748;6.154;2023-12-29T15:15:19;5.67;;;1.07;;
3341;SDS011;1684;50.748;6.154;2023-12-29T15:17:48;4.60;;;1.23;;
3341;SDS011;1684;50.748;6.154;2023-12-29T15:20:17;7.30;;;0.97;;
3341;SDS011;1684;50.748;6.154;2023-12-29T15:22:46;4.60;;;1.70;;
3341;SDS011;1684;50.748;6.154;2023-12-29T15:25:17;5.50;;;1.33;;
3341;SDS011;1684;50.748;6.154;2023-12-29T15:27:46;4.03;;;1.70;;
3341;SDS011;1684;50.748;6.154;2023-12-29T15:30:14;3.60;;;1.40;;
3341;SDS011;1684;50.748;6.154;2023-12-29T15:32:43;3.53;;;1.50;;
3341;SDS011;1684;50.748;6.154;2023-12-29T15:35:13;5.20;;;1.40;;
3341;SDS011;1684;50.748;6.154;2023-12-29T15:37:41;3.20;;;1.20;;
3341;SDS011;1684;50.748;6.154;2023-12-29T15:40:10;4.03;;;1.60;;
3341;SDS011;1684;50.748;6.154;2023-12-29T15:42:40;11.43;;;1.60;;